Time;durP1;ratioP1;P1;durP2;ratioP2;P2;SDS_P1;SDS_P2;PMS_P1;PMS_P2;Temp;Humidity;BMP_temperature;BMP_pressure;BME280_temperature;BME280_humidity;BME280_pressure;Samples;Min_cycle;Max_cycle;Signal;HPM_P1;HPM_P2
2022/10/23 00:01:43;;;;;;;5.80;4.93;;;;;;;;;;5045457;28;20946;-77
2022/10/23 00:04:28;;;;;;;8.80;5.00;;;;;;;;;;5032294;28;20913;-78
2022/10/23 00:06:54;;;;;;;14.10;5.33;;;;;;;;;;5006548;28;20411;-77
2022/10/23 00:09:22;;;;;;;9.87;5.83;;;;;;;;;;5027272;28;20998;-78
2022/10/23 00:11:49;;;;;;;8.13;5.40;;;;;;;;;;5044235;28;20815;-77
2022/10/23 00:14:16;;;;;;;9.23;4.80;;;;;;;;;;5034204;28;21119;-77
2022/10/23 00:16:42;;;;;;;5.53;4.40;;;;;;;;;;5026526;28;20411;-77
2022/10/23 00:19:08;;;;;;;7.67;3.93;;;;;;;;;;5040036;28;20438;-77
2022/10/23 00:21:34;;;;;;;9.00;4.90;;;;;;;;;;5027059;28;20426;-78
2022/10/23 00:24:00;;;;;;;8.40;4.70;;;;;;;;;;5033070;28;20501;-78
2022/10/23 00:26:26;;;;;;;7.10;5.10;;;;;;;;;;5049525;28;20488;-78
2022/10/23 00:28:53;;;;;;;6.23;4.83;;;;;;;;;;5033356;28;20429;-79
2022/10/23 00:31:20;;;;;;;10.90;5.17;;;;;;;;;;5030885;28;20430;-77
2022/10/23 00:33:46;;;;;;;5.90;5.30;;;;;;;;;;5036691;28;20434;-77
2022/10/23 00:36:13;;;;;;;15.87;4.60;;;;;;;;;;5049444;28;20436;-80
2022/10/23 00:38:40;;;;;;;5.13;4.30;;;;;;;;;;5032936;28;20441;-78
2022/10/23 00:41:07;;;;;;;5.23;4.50;;;;;;;;;;5049997;28;20570;-78
2022/10/23 00:43:33;;;;;;;5.57;4.80;;;;;;;;;;5032892;28;20461;-79
2022/10/23 00:45:59;;;;;;;9.00;4.30;;;;;;;;;;5047550;28;20406;-78
2022/10/23 00:48:26;;;;;;;9.53;4.80;;;;;;;;;;5028639;28;21083;-78
2022/10/23 00:50:53;;;;;;;9.70;5.33;;;;;;;;;;5049644;28;20410;-78
2022/10/23 00:53:20;;;;;;;5.93;4.40;;;;;;;;;;5027181;28;20471;-78
2022/10/23 00:55:47;;;;;;;6.10;5.10;;;;;;;;;;5029283;28;20406;-78
2022/10/23 00:58:14;;;;;;;5.30;4.87;;;;;;;;;;5044904;28;20422;-79
2022/10/23 01:00:43;;;;;;;22.30;5.50;;;;;;;;;;5049394;28;20417;-78
2022/10/23 01:03:09;;;;;;;5.93;4.70;;;;;;;;;;5026666;28;20474;-78
2022/10/23 01:05:44;;;;;;;6.03;4.37;;;;;;;;;;5049867;28;20402;-79
2022/10/23 01:08:16;;;;;;;4.30;4.00;;;;;;;;;;5008603;28;20415;-79
2022/10/23 01:10:47;;;;;;;4.97;4.27;;;;;;;;;;5049588;28;20489;-78
2022/10/23 01:13:19;;;;;;;4.50;4.20;;;;;;;;;;5026530;28;21097;-80
2022/10/23 01:16:00;;;;;;;4.87;4.30;;;;;;;;;;5049785;28;20416;-79
2022/10/23 01:18:46;;;;;;;8.97;7.97;;;;;;;;;;5029935;28;20541;-79
2022/10/23 01:21:35;;;;;;;6.33;5.70;;;;;;;;;;5049265;28;20428;-78
2022/10/23 01:24:07;;;;;;;3.93;3.70;;;;;;;;;;5032093;28;20958;-78
2022/10/23 01:26:34;;;;;;;8.60;4.07;;;;;;;;;;5029855;28;20988;-78
2022/10/23 01:29:23;;;;;;;9.77;4.63;;;;;;;;;;5043465;28;20441;-78
2022/10/23 01:31:52;;;;;;;10.77;5.00;;;;;;;;;;5036773;28;20430;-78
2022/10/23 01:34:20;;;;;;;9.73;5.40;;;;;;;;;;5034501;28;20513;-78
2022/10/23 01:36:48;;;;;;;16.93;4.37;;;;;;;;;;5028523;28;20419;-79
2022/10/23 01:39:35;;;;;;;4.70;4.10;;;;;;;;;;5043619;28;20438;-79
2022/10/23 01:42:06;;;;;;;5.47;4.93;;;;;;;;;;5028572;28;20434;-79
2022/10/23 01:44:40;;;;;;;4.77;4.47;;;;;;;;;;5027027;28;20447;-78
2022/10/23 01:47:07;;;;;;;10.00;5.57;;;;;;;;;;5048626;28;20446;-79
2022/10/23 01:49:35;;;;;;;5.77;4.93;;;;;;;;;;5035965;28;20442;-79
2022/10/23 01:52:05;;;;;;;8.97;5.27;;;;;;;;;;5028584;28;20427;-80
2022/10/23 01:54:33;;;;;;;5.30;4.87;;;;;;;;;;5044955;28;20532;-78
2022/10/23 01:56:59;;;;;;;5.40;4.90;;;;;;;;;;5028495;28;20427;-78
2022/10/23 01:59:37;;;;;;;10.53;6.43;;;;;;;;;;5043600;28;20469;-78
2022/10/23 02:02:04;;;;;;;8.50;4.63;;;;;;;;;;5012898;28;20455;-78
2022/10/23 02:04:35;;;;;;;5.20;4.70;;;;;;;;;;5044602;28;20511;-79
2022/10/23 02:07:01;;;;;;;6.13;4.90;;;;;;;;;;5028472;28;20426;-78
2022/10/23 02:09:27;;;;;;;13.80;5.77;;;;;;;;;;5044026;28;20442;-78
2022/10/23 02:11:59;;;;;;;10.00;5.17;;;;;;;;;;5028791;28;20782;-78
2022/10/23 02:14:43;;;;;;;5.57;5.03;;;;;;;;;;5042999;28;20439;-77
2022/10/23 02:17:15;;;;;;;6.17;5.47;;;;;;;;;;5008394;28;20450;-77
2022/10/23 02:19:46;;;;;;;7.67;6.37;;;;;;;;;;5017347;28;20426;-78
2022/10/23 02:22:12;;;;;;;6.90;4.63;;;;;;;;;;5048176;28;20478;-79
2022/10/23 02:24:49;;;;;;;10.67;4.93;;;;;;;;;;5026761;28;20944;-78
2022/10/23 02:27:18;;;;;;;6.00;5.20;;;;;;;;;;5049840;28;20919;-79
2022/10/23 02:29:49;;;;;;;6.67;4.50;;;;;;;;;;5026408;28;20809;-78
2022/10/23 02:32:17;;;;;;;5.67;4.80;;;;;;;;;;5013782;28;20442;-78
2022/10/23 02:34:43;;;;;;;8.13;4.67;;;;;;;;;;5046152;28;20438;-78
2022/10/23 02:37:09;;;;;;;4.77;4.40;;;;;;;;;;5034214;28;20841;-78
2022/10/23 02:39:35;;;;;;;7.97;4.80;;;;;;;;;;5050152;28;20434;-77
2022/10/23 02:42:14;;;;;;;12.27;4.77;;;;;;;;;;5034252;28;20480;-78
2022/10/23 02:44:59;;;;;;;4.47;3.90;;;;;;;;;;5040448;28;20449;-77
2022/10/23 02:47:50;;;;;;;8.30;4.70;;;;;;;;;;5027807;28;20430;-78
2022/10/23 02:50:32;;;;;;;4.80;4.33;;;;;;;;;;5035200;28;20483;-78
2022/10/23 02:53:14;;;;;;;5.10;4.63;;;;;;;;;;5027037;28;20995;-78
2022/10/23 02:55:59;;;;;;;4.63;4.33;;;;;;;;;;5041704;28;20518;-78
2022/10/23 02:58:31;;;;;;;4.63;4.30;;;;;;;;;;5026634;28;20939;-78
2022/10/23 03:01:02;;;;;;;4.73;4.47;;;;;;;;;;5007995;28;20420;-77
2022/10/23 03:03:34;;;;;;;12.20;4.60;;;;;;;;;;5005835;28;20475;-77
2022/10/23 03:06:00;;;;;;;11.27;4.37;;;;;;;;;;5027403;28;20417;-77
2022/10/23 03:08:26;;;;;;;4.73;4.43;;;;;;;;;;5044359;28;20438;-78
2022/10/23 03:10:53;;;;;;;8.13;6.03;;;;;;;;;;5008314;28;20451;-78
2022/10/23 03:13:19;;;;;;;5.20;4.70;;;;;;;;;;5046129;28;20456;-78
2022/10/23 03:15:45;;;;;;;6.23;4.90;;;;;;;;;;5042728;28;20495;-78
2022/10/23 03:18:10;;;;;;;5.13;4.43;;;;;;;;;;5026019;28;20431;-78
2022/10/23 03:20:36;;;;;;;4.90;4.50;;;;;;;;;;5024524;28;20470;-78
2022/10/23 03:23:02;;;;;;;4.57;4.23;;;;;;;;;;5046182;28;20518;-78
2022/10/23 03:25:28;;;;;;;7.40;4.60;;;;;;;;;;5039947;28;20445;-77
2022/10/23 03:27:54;;;;;;;5.10;4.67;;;;;;;;;;5025950;28;20438;-78
2022/10/23 03:30:20;;;;;;;4.40;4.10;;;;;;;;;;5041774;28;20850;-77
2022/10/23 03:32:46;;;;;;;7.77;4.70;;;;;;;;;;5027264;28;20940;-78
2022/10/23 03:35:12;;;;;;;4.83;3.40;;;;;;;;;;5041280;28;20441;-79
2022/10/23 03:37:38;;;;;;;4.50;4.20;;;;;;;;;;5026952;28;20788;-78
2022/10/23 03:40:05;;;;;;;8.50;4.43;;;;;;;;;;5040461;28;20441;-78
2022/10/23 03:42:30;;;;;;;4.20;3.80;;;;;;;;;;5026855;28;20553;-78
2022/10/23 03:44:56;;;;;;;9.30;5.60;;;;;;;;;;5037316;28;20595;-79
2022/10/23 03:47:22;;;;;;;10.20;4.90;;;;;;;;;;5027156;28;20434;-79
2022/10/23 03:49:48;;;;;;;9.60;5.27;;;;;;;;;;5031209;28;20492;-79
2022/10/23 03:52:14;;;;;;;5.70;4.53;;;;;;;;;;5045635;28;20516;-78
2022/10/23 03:54:40;;;;;;;6.57;3.93;;;;;;;;;;5031714;28;20444;-78
2022/10/23 03:57:06;;;;;;;5.23;4.93;;;;;;;;;;5026887;28;20423;-78
2022/10/23 03:59:32;;;;;;;6.10;4.00;;;;;;;;;;5040256;28;20931;-78
2022/10/23 04:01:58;;;;;;;8.30;5.40;;;;;;;;;;5028453;28;20800;-78
2022/10/23 04:04:24;;;;;;;4.37;3.97;;;;;;;;;;5042510;28;20477;-78
2022/10/23 04:06:50;;;;;;;6.57;3.87;;;;;;;;;;5046652;28;20406;-78
2022/10/23 04:09:16;;;;;;;7.03;4.90;;;;;;;;;;5023531;28;20434;-77
2022/10/23 04:11:42;;;;;;;6.93;3.90;;;;;;;;;;5014419;28;20486;-77
2022/10/23 04:14:10;;;;;;;8.90;4.40;;;;;;;;;;5035862;28;20438;-77
2022/10/23 04:16:36;;;;;;;4.83;4.40;;;;;;;;;;5026020;28;20406;-79
2022/10/23 04:19:02;;;;;;;4.27;3.93;;;;;;;;;;5038851;28;20449;-77
2022/10/23 04:21:28;;;;;;;7.47;4.30;;;;;;;;;;5026254;28;20824;-77
2022/10/23 04:23:54;;;;;;;3.90;3.60;;;;;;;;;;5039620;28;20481;-77
2022/10/23 04:26:20;;;;;;;6.10;4.60;;;;;;;;;;5046476;28;20442;-78
2022/10/23 04:28:46;;;;;;;5.97;4.20;;;;;;;;;;5022830;28;20426;-77
2022/10/23 04:31:12;;;;;;;4.10;3.57;;;;;;;;;;5046099;28;20421;-77
2022/10/23 04:33:38;;;;;;;10.77;4.50;;;;;;;;;;5025136;28;20431;-78
2022/10/23 04:36:04;;;;;;;5.30;4.80;;;;;;;;;;5024932;28;21150;-78
2022/10/23 04:38:30;;;;;;;7.00;4.10;;;;;;;;;;5045277;28;20430;-78
2022/10/23 04:40:56;;;;;;;6.83;4.43;;;;;;;;;;5040961;28;20441;-78
2022/10/23 04:43:22;;;;;;;8.77;4.80;;;;;;;;;;5026559;28;20820;-78
2022/10/23 04:45:49;;;;;;;4.13;3.90;;;;;;;;;;5036377;28;20543;-78
2022/10/23 04:48:15;;;;;;;6.03;4.00;;;;;;;;;;5026503;28;20439;-78
2022/10/23 04:50:41;;;;;;;4.47;4.17;;;;;;;;;;5042399;28;20450;-78
2022/10/23 04:53:08;;;;;;;4.63;4.20;;;;;;;;;;5025058;28;20941;-77
2022/10/23 04:55:34;;;;;;;5.90;5.30;;;;;;;;;;5040622;28;20461;-77
2022/10/23 04:58:00;;;;;;;4.90;4.60;;;;;;;;;;5026112;28;20431;-77
2022/10/23 05:00:26;;;;;;;4.63;4.30;;;;;;;;;;5040639;28;20445;-77
2022/10/23 05:02:52;;;;;;;7.03;4.37;;;;;;;;;;5034654;28;20473;-77
2022/10/23 05:05:18;;;;;;;4.90;4.50;;;;;;;;;;5034503;28;20804;-78
2022/10/23 05:07:44;;;;;;;6.20;4.40;;;;;;;;;;5024807;28;20443;-78
2022/10/23 05:10:10;;;;;;;7.57;5.70;;;;;;;;;;5041173;28;20437;-78
2022/10/23 05:12:36;;;;;;;4.77;4.00;;;;;;;;;;5029876;28;20434;-78
2022/10/23 05:15:02;;;;;;;4.60;4.40;;;;;;;;;;5043086;28;20442;-79
2022/10/23 05:17:34;;;;;;;5.17;4.97;;;;;;;;;;5029583;28;20496;-77
2022/10/23 05:20:01;;;;;;;6.23;4.40;;;;;;;;;;5034977;28;20449;-78
2022/10/23 05:22:30;;;;;;;11.53;4.07;;;;;;;;;;5048086;28;20468;-78
2022/10/23 05:24:56;;;;;;;4.67;4.40;;;;;;;;;;5043233;28;20480;-79
2022/10/23 05:27:22;;;;;;;5.03;4.10;;;;;;;;;;5029655;28;20573;-78
2022/10/23 05:29:48;;;;;;;3.63;3.33;;;;;;;;;;5036249;28;20979;-78
2022/10/23 05:32:15;;;;;;;6.63;4.10;;;;;;;;;;5046810;28;20418;-78
2022/10/23 05:34:41;;;;;;;9.90;4.87;;;;;;;;;;5026213;28;20990;-78
2022/10/23 05:37:09;;;;;;;4.87;3.57;;;;;;;;;;5028790;28;21036;-79
2022/10/23 05:39:35;;;;;;;4.83;4.57;;;;;;;;;;5038655;28;20497;-80
2022/10/23 05:42:01;;;;;;;9.97;5.07;;;;;;;;;;5028609;28;20410;-78
2022/10/23 05:44:27;;;;;;;6.00;4.70;;;;;;;;;;5038104;28;20474;-76
2022/10/23 05:46:53;;;;;;;4.87;4.43;;;;;;;;;;5028621;28;20763;-78
2022/10/23 05:49:19;;;;;;;6.50;3.70;;;;;;;;;;5044435;28;21041;-77
2022/10/23 05:51:45;;;;;;;5.13;3.93;;;;;;;;;;5048617;28;20413;-78
2022/10/23 05:54:11;;;;;;;3.90;3.80;;;;;;;;;;5024883;28;20948;-78
2022/10/23 05:56:40;;;;;;;4.20;3.80;;;;;;;;;;5028647;28;20948;-78
2022/10/23 05:59:06;;;;;;;8.20;3.60;;;;;;;;;;5042937;28;20491;-78
2022/10/23 06:01:32;;;;;;;4.60;4.40;;;;;;;;;;5028532;28;20406;-78
2022/10/23 06:03:59;;;;;;;13.43;4.73;;;;;;;;;;5045642;28;20527;-78
2022/10/23 06:06:25;;;;;;;5.00;4.30;;;;;;;;;;5025400;28;21015;-78
2022/10/23 06:08:51;;;;;;;4.50;4.30;;;;;;;;;;5047428;28;20465;-78
2022/10/23 06:11:17;;;;;;;7.23;4.33;;;;;;;;;;5043315;28;20670;-78
2022/10/23 06:13:43;;;;;;;11.40;7.60;;;;;;;;;;5028516;28;20943;-78
2022/10/23 06:16:14;;;;;;;12.40;5.40;;;;;;;;;;5022461;28;20447;-78
2022/10/23 06:18:40;;;;;;;5.10;4.40;;;;;;;;;;5046993;28;20541;-78
2022/10/23 06:21:06;;;;;;;8.93;3.90;;;;;;;;;;5041218;28;20998;-78
2022/10/23 06:23:33;;;;;;;5.17;4.40;;;;;;;;;;5028336;28;20546;-79
2022/10/23 06:25:59;;;;;;;4.83;4.33;;;;;;;;;;5042412;28;20507;-78
2022/10/23 06:28:25;;;;;;;5.00;4.70;;;;;;;;;;5028202;28;20434;-78
2022/10/23 06:30:51;;;;;;;5.77;4.80;;;;;;;;;;5042594;28;20528;-79
2022/10/23 06:33:17;;;;;;;7.10;5.10;;;;;;;;;;5028498;28;20431;-78
2022/10/23 06:35:43;;;;;;;6.70;4.43;;;;;;;;;;5042548;28;21239;-79
2022/10/23 06:38:09;;;;;;;9.63;4.70;;;;;;;;;;5027814;28;20577;-78
2022/10/23 06:40:35;;;;;;;4.53;4.23;;;;;;;;;;5042466;28;20441;-79
2022/10/23 06:43:01;;;;;;;4.17;3.87;;;;;;;;;;5027751;28;20462;-79
2022/10/23 06:45:31;;;;;;;4.97;4.63;;;;;;;;;;5037717;28;20473;-79
2022/10/23 06:47:57;;;;;;;5.47;5.07;;;;;;;;;;5026216;28;20438;-79
2022/10/23 06:50:24;;;;;;;11.33;4.20;;;;;;;;;;5041854;28;20460;-78
2022/10/23 06:52:50;;;;;;;4.60;4.40;;;;;;;;;;5028624;28;20457;-77
2022/10/23 06:55:16;;;;;;;4.40;4.13;;;;;;;;;;5043133;28;20446;-78
2022/10/23 06:57:42;;;;;;;5.60;5.07;;;;;;;;;;4682197;28;10000152;-81
2022/10/23 07:00:08;;;;;;;5.03;4.63;;;;;;;;;;5025631;28;20214;-77
2022/10/23 07:02:35;;;;;;;8.00;4.53;;;;;;;;;;5026931;28;20956;-79
2022/10/23 07:05:01;;;;;;;7.07;6.57;;;;;;;;;;5016870;28;20451;-78
2022/10/23 07:07:29;;;;;;;9.63;4.33;;;;;;;;;;5015709;28;20960;-78
2022/10/23 07:09:54;;;;;;;7.77;4.47;;;;;;;;;;5018310;28;20441;-78
2022/10/23 07:12:21;;;;;;;7.77;3.60;;;;;;;;;;5015415;28;20912;-79
2022/10/23 07:14:46;;;;;;;6.30;3.60;;;;;;;;;;5018692;28;20553;-78
2022/10/23 07:17:12;;;;;;;3.50;3.30;;;;;;;;;;5014722;28;21021;-79
2022/10/23 07:19:38;;;;;;;8.83;3.20;;;;;;;;;;5025697;28;20458;-79
2022/10/23 07:22:04;;;;;;;6.37;3.10;;;;;;;;;;5017391;28;20889;-78
2022/10/23 07:24:35;;;;;;;3.70;3.40;;;;;;;;;;5026012;28;20617;-78
2022/10/23 07:27:01;;;;;;;3.93;3.50;;;;;;;;;;5020444;28;20996;-78
2022/10/23 07:29:27;;;;;;;6.27;3.50;;;;;;;;;;5011405;28;20443;-79
2022/10/23 07:31:53;;;;;;;4.13;3.73;;;;;;;;;;5017400;28;20434;-79
2022/10/23 07:34:19;;;;;;;6.27;3.60;;;;;;;;;;5016416;28;20581;-78
2022/10/23 07:36:45;;;;;;;5.30;3.97;;;;;;;;;;5013540;28;21291;-79
2022/10/23 07:39:12;;;;;;;4.43;3.50;;;;;;;;;;5021926;28;20431;-77
2022/10/23 07:41:38;;;;;;;3.93;3.43;;;;;;;;;;5013470;28;20447;-79
2022/10/23 07:44:03;;;;;;;3.70;3.43;;;;;;;;;;5027829;28;20471;-78
2022/10/23 07:46:29;;;;;;;4.10;3.10;;;;;;;;;;5014418;28;20509;-79
2022/10/23 07:48:55;;;;;;;4.27;2.43;;;;;;;;;;5015487;28;20800;-78
2022/10/23 07:51:21;;;;;;;2.70;2.60;;;;;;;;;;5023022;28;20513;-79
2022/10/23 07:53:47;;;;;;;7.27;3.30;;;;;;;;;;5020057;28;20482;-79
2022/10/23 07:56:20;;;;;;;4.67;2.90;;;;;;;;;;5019059;28;20461;-78
2022/10/23 07:58:46;;;;;;;6.17;3.67;;;;;;;;;;5033980;28;20508;-79
2022/10/23 08:01:18;;;;;;;195.60;91.77;;;;;;;;;;5027760;28;20450;-78
2022/10/23 08:03:44;;;;;;;3.40;2.50;;;;;;;;;;5011422;28;21039;-78
2022/10/23 08:06:10;;;;;;;3.00;2.70;;;;;;;;;;5030195;28;20470;-78
2022/10/23 08:08:36;;;;;;;3.50;2.53;;;;;;;;;;5015441;28;20513;-78
2022/10/23 08:11:02;;;;;;;2.40;2.40;;;;;;;;;;5020030;28;20439;-78
2022/10/23 08:13:28;;;;;;;7.10;2.40;;;;;;;;;;5018506;28;20490;-78
2022/10/23 08:15:54;;;;;;;3.80;2.60;;;;;;;;;;5018559;28;20458;-79
2022/10/23 08:18:20;;;;;;;3.27;2.40;;;;;;;;;;5023560;28;20434;-78
2022/10/23 08:20:49;;;;;;;2.70;2.50;;;;;;;;;;5024140;28;20820;-79
2022/10/23 08:23:17;;;;;;;2.70;2.60;;;;;;;;;;5044746;28;20484;-80
2022/10/23 08:25:43;;;;;;;4.50;2.00;;;;;;;;;;5029944;28;20442;-77
2022/10/23 08:28:09;;;;;;;2.23;2.10;;;;;;;;;;5018011;28;20435;-78
2022/10/23 08:30:36;;;;;;;2.53;1.90;;;;;;;;;;5025122;28;20460;-79
2022/10/23 08:33:02;;;;;;;3.03;1.73;;;;;;;;;;5033505;28;20429;-78
2022/10/23 08:35:28;;;;;;;2.03;1.90;;;;;;;;;;5031250;28;20470;-78
2022/10/23 08:37:54;;;;;;;2.87;2.77;;;;;;;;;;5035980;28;20520;-80
2022/10/23 08:40:24;;;;;;;2.40;2.30;;;;;;;;;;5030698;28;20449;-79
2022/10/23 08:42:54;;;;;;;2.43;2.23;;;;;;;;;;5031460;28;20447;-79
2022/10/23 08:45:37;;;;;;;4.43;1.83;;;;;;;;;;5029646;28;20449;-78
2022/10/23 08:48:13;;;;;;;3.90;2.70;;;;;;;;;;5033933;28;20936;-78
2022/10/23 08:50:42;;;;;;;1.70;1.70;;;;;;;;;;5019226;28;20435;-77
2022/10/23 08:53:13;;;;;;;2.87;2.27;;;;;;;;;;5040075;28;20431;-78
2022/10/23 08:55:44;;;;;;;2.13;2.13;;;;;;;;;;5036215;28;20442;-77
2022/10/23 08:58:19;;;;;;;2.90;2.80;;;;;;;;;;5039913;28;20431;-75
2022/10/23 09:00:46;;;;;;;1.90;1.90;;;;;;;;;;5038114;28;20437;-77
2022/10/23 09:03:12;;;;;;;1.77;1.67;;;;;;;;;;5042085;28;20490;-77
2022/10/23 09:05:41;;;;;;;1.93;1.80;;;;;;;;;;5042774;28;20446;-77
2022/10/23 09:08:20;;;;;;;2.17;1.93;;;;;;;;;;5035059;28;20920;-79
2022/10/23 09:11:01;;;;;;;2.87;2.67;;;;;;;;;;5039184;28;20455;-78
2022/10/23 09:13:30;;;;;;;2.37;2.20;;;;;;;;;;5040038;28;21040;-78
2022/10/23 09:16:16;;;;;;;1.90;1.80;;;;;;;;;;5035940;28;20444;-79
2022/10/23 09:18:42;;;;;;;1.70;1.60;;;;;;;;;;5038884;28;20426;-77
2022/10/23 09:21:09;;;;;;;1.40;1.40;;;;;;;;;;5038460;28;20442;-78
2022/10/23 09:23:35;;;;;;;2.23;1.80;;;;;;;;;;5038936;28;20578;-78
2022/10/23 09:26:02;;;;;;;1.83;1.83;;;;;;;;;;5030309;28;20438;-79
2022/10/23 09:28:30;;;;;;;2.63;1.97;;;;;;;;;;5038885;28;20434;-79
2022/10/23 09:31:10;;;;;;;1.57;1.40;;;;;;;;;;5037447;28;20481;-77
2022/10/23 09:33:36;;;;;;;1.50;1.50;;;;;;;;;;5037564;28;20422;-77
2022/10/23 09:36:05;;;;;;;2.33;2.20;;;;;;;;;;5031191;28;20452;-77
2022/10/23 09:38:32;;;;;;;1.30;1.30;;;;;;;;;;5039724;28;20423;-78
2022/10/23 09:40:59;;;;;;;2.60;1.80;;;;;;;;;;5037252;28;20454;-78
2022/10/23 09:43:26;;;;;;;4.83;1.93;;;;;;;;;;5039488;28;20466;-79
2022/10/23 09:45:56;;;;;;;3.40;3.30;;;;;;;;;;5034271;28;20439;-79
2022/10/23 09:48:22;;;;;;;4.27;2.10;;;;;;;;;;5047520;28;20417;-82
2022/10/23 09:50:49;;;;;;;1.33;1.33;;;;;;;;;;5039139;28;20438;-80
2022/10/23 09:53:17;;;;;;;1.40;1.30;;;;;;;;;;5029866;28;20485;-80
2022/10/23 09:55:50;;;;;;;4.00;3.40;;;;;;;;;;5044607;28;20517;-80
2022/10/23 09:58:20;;;;;;;1.70;1.70;;;;;;;;;;5006590;28;20442;-79
2022/10/23 10:00:46;;;;;;;6.87;1.37;;;;;;;;;;5043287;28;20939;-79
2022/10/23 10:03:20;;;;;;;1.60;1.50;;;;;;;;;;5027773;28;20848;-80
2022/10/23 10:05:53;;;;;;;1.30;1.30;;;;;;;;;;5040950;28;20932;-82
2022/10/23 10:08:34;;;;;;;2.57;1.47;;;;;;;;;;5008647;28;20777;-84
2022/10/23 10:11:02;;;;;;;2.03;1.87;;;;;;;;;;5034499;28;20495;-83
2022/10/23 10:13:42;;;;;;;1.60;1.27;;;;;;;;;;5027915;28;20423;-82
2022/10/23 10:16:15;;;;;;;2.87;1.70;;;;;;;;;;5028179;28;20465;-83
2022/10/23 10:18:50;;;;;;;4.73;1.73;;;;;;;;;;5008332;28;20886;-84
2022/10/23 10:21:20;;;;;;;1.63;1.63;;;;;;;;;;5044226;28;21058;-84
2022/10/23 10:23:47;;;;;;;3.97;1.60;;;;;;;;;;5026818;28;20991;-84
2022/10/23 10:26:28;;;;;;;14.00;12.70;;;;;;;;;;5042943;28;20438;-83
2022/10/23 10:29:09;;;;;;;1.90;1.87;;;;;;;;;;5008035;28;20762;-83
2022/10/23 10:31:41;;;;;;;1.83;1.73;;;;;;;;;;5040829;28;20429;-83
2022/10/23 10:34:21;;;;;;;2.07;1.97;;;;;;;;;;5006501;28;20430;-84
2022/10/23 10:36:47;;;;;;;6.60;2.73;;;;;;;;;;5043016;28;20430;-82
2022/10/23 10:39:38;;;;;;;7.37;2.60;;;;;;;;;;5026294;28;20836;-83
2022/10/23 10:42:15;;;;;;;2.80;1.83;;;;;;;;;;5039284;28;20436;-81
2022/10/23 10:45:00;;;;;;;2.87;2.77;;;;;;;;;;5003713;28;20466;-82
2022/10/23 10:47:46;;;;;;;1.90;1.80;;;;;;;;;;5024281;28;20421;-79
2022/10/23 10:50:22;;;;;;;1.87;1.37;;;;;;;;;;5025071;28;20430;-80
2022/10/23 10:53:06;;;;;;;1.90;1.90;;;;;;;;;;5046808;28;20397;-78
2022/10/23 10:55:32;;;;;;;2.93;1.90;;;;;;;;;;5025003;28;20504;-79
2022/10/23 10:58:02;;;;;;;2.60;2.30;;;;;;;;;;5027180;28;20418;-79
2022/10/23 11:00:29;;;;;;;2.50;2.50;;;;;;;;;;5043320;28;20736;-79
2022/10/23 11:03:14;;;;;;;2.20;2.10;;;;;;;;;;5037624;28;20467;-78
2022/10/23 11:05:44;;;;;;;4.00;1.80;;;;;;;;;;5042426;28;20434;-79
2022/10/23 11:08:29;;;;;;;2.40;2.10;;;;;;;;;;5047677;28;20739;-78
2022/10/23 11:10:58;;;;;;;2.90;2.60;;;;;;;;;;5030646;28;20942;-80
2022/10/23 11:13:26;;;;;;;1.70;1.60;;;;;;;;;;5025930;28;20435;-80
2022/10/23 11:15:57;;;;;;;7.30;2.27;;;;;;;;;;5047961;28;20434;-85
2022/10/23 11:18:26;;;;;;;1.90;1.80;;;;;;;;;;5047141;28;20944;-80
2022/10/23 11:20:58;;;;;;;2.63;2.27;;;;;;;;;;5030230;28;20434;-79
2022/10/23 11:23:43;;;;;;;2.73;1.97;;;;;;;;;;5031409;28;20466;-80
2022/10/23 11:26:27;;;;;;;1.23;1.23;;;;;;;;;;5041066;28;20858;-81
2022/10/23 11:29:12;;;;;;;1.70;1.60;;;;;;;;;;5026399;28;20430;-80
2022/10/23 11:31:42;;;;;;;2.87;2.70;;;;;;;;;;5040703;28;20441;-79
2022/10/23 11:34:11;;;;;;;2.03;1.80;;;;;;;;;;5025885;28;20986;-82
2022/10/23 11:36:43;;;;;;;1.50;1.50;;;;;;;;;;5028317;28;20446;-81
2022/10/23 11:39:20;;;;;;;4.93;1.97;;;;;;;;;;5045051;28;20571;-78
2022/10/23 11:41:51;;;;;;;2.43;1.47;;;;;;;;;;5036818;28;20467;-80
2022/10/23 11:44:25;;;;;;;2.20;1.80;;;;;;;;;;5033315;28;20494;-82
2022/10/23 11:47:02;;;;;;;2.80;2.03;;;;;;;;;;5039796;28;20429;-83
2022/10/23 11:49:31;;;;;;;3.73;3.53;;;;;;;;;;5030685;28;20414;-84
2022/10/23 11:52:04;;;;;;;1.63;1.50;;;;;;;;;;5044838;28;20438;-81
2022/10/23 11:54:31;;;;;;;9.60;7.73;;;;;;;;;;5046959;28;20438;-83
2022/10/23 11:57:12;;;;;;;1.77;1.67;;;;;;;;;;5034427;28;20946;-78
2022/10/23 11:59:41;;;;;;;1.73;1.53;;;;;;;;;;5045801;28;20432;-78
2022/10/23 12:02:19;;;;;;;2.53;1.67;;;;;;;;;;5027408;28;20453;-84
2022/10/23 12:04:55;;;;;;;1.53;1.43;;;;;;;;;;5021920;28;20956;-82
2022/10/23 12:07:23;;;;;;;3.97;3.57;;;;;;;;;;5026264;28;20458;-82
2022/10/23 12:09:55;;;;;;;7.80;7.10;;;;;;;;;;5026748;28;20431;-75
2022/10/23 12:12:27;;;;;;;1.67;1.60;;;;;;;;;;5040415;28;20480;-80
2022/10/23 12:14:53;;;;;;;2.20;1.87;;;;;;;;;;5022547;28;20428;-79
2022/10/23 12:17:22;;;;;;;2.60;2.00;;;;;;;;;;5018615;28;20474;-77
2022/10/23 12:19:49;;;;;;;1.80;1.70;;;;;;;;;;5041234;28;20800;-78
2022/10/23 12:22:15;;;;;;;3.20;2.60;;;;;;;;;;5043488;28;20973;-79
2022/10/23 12:24:53;;;;;;;3.90;1.93;;;;;;;;;;5030283;28;20956;-77
2022/10/23 12:27:24;;;;;;;6.03;2.20;;;;;;;;;;5040594;28;20469;-77
2022/10/23 12:30:09;;;;;;;1.73;1.73;;;;;;;;;;5009874;28;20419;-78
2022/10/23 12:32:44;;;;;;;5.20;3.00;;;;;;;;;;5044989;28;20544;-78
2022/10/23 12:35:47;;;;;;;4.90;3.23;;;;;;;;;;5029605;28;20426;-80
2022/10/23 12:38:24;;;;;;;1.70;1.70;;;;;;;;;;5011790;28;20938;-83
2022/10/23 12:40:56;;;;;;;5.00;1.90;;;;;;;;;;5026494;28;20443;-77
2022/10/23 12:43:30;;;;;;;2.60;2.40;;;;;;;;;;5018081;28;20788;-77
2022/10/23 12:45:58;;;;;;;2.17;1.97;;;;;;;;;;5022146;28;20669;-78
2022/10/23 12:48:25;;;;;;;1.87;1.70;;;;;;;;;;5019643;28;20820;-80
2022/10/23 12:50:52;;;;;;;2.10;2.10;;;;;;;;;;5025482;28;20432;-83
2022/10/23 12:53:19;;;;;;;5.33;4.63;;;;;;;;;;5030187;28;20402;-82
2022/10/23 12:55:57;;;;;;;4.80;2.83;;;;;;;;;;5045058;28;20453;-84
2022/10/23 12:58:24;;;;;;;1.97;1.87;;;;;;;;;;5056468;28;20441;-86
2022/10/23 13:00:51;;;;;;;2.10;2.00;;;;;;;;;;5022207;28;20488;-79
2022/10/23 13:03:17;;;;;;;2.00;2.00;;;;;;;;;;5037491;28;20493;-77
2022/10/23 13:05:43;;;;;;;1.73;1.63;;;;;;;;;;5025461;28;20442;-77
2022/10/23 13:08:09;;;;;;;2.00;1.90;;;;;;;;;;4328587;28;10000730;-79
2022/10/23 13:10:38;;;;;;;3.50;1.90;;;;;;;;;;5024126;28;20275;-80
2022/10/23 13:13:05;;;;;;;2.53;2.00;;;;;;;;;;5027799;28;20419;-79
2022/10/23 13:15:39;;;;;;;1.83;1.73;;;;;;;;;;5027772;28;20434;-79
2022/10/23 13:18:05;;;;;;;2.10;1.90;;;;;;;;;;5023030;28;20422;-80
2022/10/23 13:20:45;;;;;;;25.03;2.27;;;;;;;;;;5027277;28;20492;-79
2022/10/23 13:23:31;;;;;;;2.20;2.10;;;;;;;;;;5031731;28;20480;-80
2022/10/23 13:25:57;;;;;;;4.00;2.40;;;;;;;;;;5028401;28;20537;-78
2022/10/23 13:28:25;;;;;;;6.80;2.90;;;;;;;;;;5027659;28;20919;-79
2022/10/23 13:31:03;;;;;;;2.40;2.20;;;;;;;;;;5026135;28;20449;-82
2022/10/23 13:33:34;;;;;;;4.73;2.47;;;;;;;;;;5021299;28;20414;-81
2022/10/23 13:36:01;;;;;;;2.93;2.40;;;;;;;;;;5024562;28;20898;-82
2022/10/23 13:38:28;;;;;;;1.97;1.90;;;;;;;;;;5032944;28;21150;-80
2022/10/23 13:40:56;;;;;;;2.17;1.87;;;;;;;;;;5031107;28;20796;-84
2022/10/23 13:43:23;;;;;;;6.87;5.10;;;;;;;;;;5025682;28;20466;-81
2022/10/23 13:45:49;;;;;;;3.60;2.43;;;;;;;;;;5026803;28;21057;-80
2022/10/23 13:48:16;;;;;;;6.53;4.57;;;;;;;;;;5030931;28;20493;-82
2022/10/23 13:50:45;;;;;;;5.80;4.97;;;;;;;;;;5027307;28;20584;-79
2022/10/23 13:53:12;;;;;;;2.60;2.40;;;;;;;;;;5028949;28;21045;-81
2022/10/23 13:55:39;;;;;;;2.27;2.17;;;;;;;;;;5032381;28;20445;-80
2022/10/23 13:58:05;;;;;;;2.40;2.30;;;;;;;;;;5036463;28;20445;-79
2022/10/23 14:00:31;;;;;;;2.50;2.30;;;;;;;;;;5030821;28;20506;-79
2022/10/23 14:02:57;;;;;;;3.63;2.60;;;;;;;;;;5026154;28;20480;-78
2022/10/23 14:05:23;;;;;;;2.23;2.13;;;;;;;;;;5038761;28;20426;-81
2022/10/23 14:07:49;;;;;;;4.33;2.50;;;;;;;;;;5020762;28;20446;-81
2022/10/23 14:10:15;;;;;;;1.97;1.90;;;;;;;;;;5033582;28;20426;-79
2022/10/23 14:12:42;;;;;;;2.90;2.70;;;;;;;;;;5033853;28;20421;-82
2022/10/23 14:15:09;;;;;;;2.27;2.23;;;;;;;;;;5033577;28;20440;-81
2022/10/23 14:17:35;;;;;;;3.17;2.40;;;;;;;;;;5032633;28;20438;-78
2022/10/23 14:22:57;;;;;;;11.73;10.60;;;;;;;;;;5034235;28;20513;-85
2022/10/23 14:25:24;;;;;;;4.53;2.87;;;;;;;;;;5025845;28;20423;-84
2022/10/23 14:28:00;;;;;;;;;;;;;;;;;;;;;
2022/10/23 14:30:27;;;;;;;3.13;2.70;;;;;;;;;;5028563;28;20418;-82
2022/10/23 14:32:54;;;;;;;3.17;2.87;;;;;;;;;;5053569;28;20475;-87
2022/10/23 14:35:26;;;;;;;2.33;2.17;;;;;;;;;;5047391;28;20485;-92
2022/10/23 14:37:52;;;;;;;3.40;2.30;;;;;;;;;;5036384;28;20829;-84
2022/10/23 14:40:18;;;;;;;5.30;3.00;;;;;;;;;;5025871;28;21024;-87
2022/10/23 14:42:44;;;;;;;2.23;2.13;;;;;;;;;;5021286;28;20435;-83
2022/10/23 14:45:10;;;;;;;2.40;2.30;;;;;;;;;;5046558;28;20422;-84
2022/10/23 14:47:36;;;;;;;6.03;3.00;;;;;;;;;;5025138;28;20441;-84
2022/10/23 14:50:03;;;;;;;3.40;2.23;;;;;;;;;;5022059;28;20950;-81
2022/10/23 14:52:29;;;;;;;3.23;1.90;;;;;;;;;;5026059;28;20450;-81
2022/10/23 14:54:55;;;;;;;4.93;2.60;;;;;;;;;;5020533;28;20473;-80
2022/10/23 14:57:21;;;;;;;4.30;3.90;;;;;;;;;;5020821;28;20439;-80
2022/10/23 15:02:54;;;;;;;2.90;2.70;;;;;;;;;;4675151;28;9999989;-81